createdAt,value
2018-08-28T00:00:28.607Z,5.37
2018-08-28T00:03:02.087Z,5.37
2018-08-28T00:05:33.058Z,5.90
2018-08-28T00:08:01.964Z,5.30
2018-08-28T00:10:41.769Z,5.63
2018-08-28T00:13:09.770Z,5.63
2018-08-28T00:15:42.204Z,5.67
2018-08-28T00:18:13.052Z,5.30
2018-08-28T00:20:41.167Z,5.07
2018-08-28T00:23:15.208Z,5.60
2018-08-28T00:25:43.357Z,5.67
2018-08-28T00:30:51.064Z,5.17
2018-08-28T00:33:32.666Z,5.43
2018-08-28T00:36:04.917Z,4.93
2018-08-28T00:38:39.439Z,4.40
2018-08-28T00:41:15.580Z,4.90
2018-08-28T00:43:48.689Z,5.00
2018-08-28T00:46:17.146Z,5.50
2018-08-28T00:48:45.342Z,4.23
2018-08-28T00:51:16.631Z,4.57
2018-08-28T00:53:51.967Z,4.47
2018-08-28T00:56:30.270Z,5.40
2018-08-28T00:59:00.350Z,4.20
2018-08-28T01:01:28.407Z,4.23
2018-08-28T01:04:01.937Z,4.87
2018-08-28T01:06:32.858Z,4.90
2018-08-28T01:09:01.070Z,5.03
2018-08-28T01:11:35.493Z,4.50
2018-08-28T01:14:09.843Z,3.77
2018-08-28T01:16:43.190Z,3.80
2018-08-28T01:19:13.447Z,4.37
2018-08-28T01:21:43.544Z,4.67
2018-08-28T01:24:21.175Z,4.10
2018-08-28T01:26:49.690Z,3.87
2018-08-28T01:29:18.039Z,4.23
2018-08-28T01:31:46.142Z,3.83
2018-08-28T01:34:19.338Z,4.47
2018-08-28T01:36:49.556Z,3.63
2018-08-28T01:39:17.726Z,3.77
2018-08-28T01:41:51.912Z,3.93
2018-08-28T01:44:24.988Z,3.73
2018-08-28T01:46:53.187Z,4.00
2018-08-28T01:49:25.456Z,3.83
2018-08-28T01:51:59.934Z,3.47
2018-08-28T01:54:35.474Z,3.83
2018-08-28T01:57:10.394Z,3.80
2018-08-28T01:59:38.523Z,3.80
2018-08-28T02:02:10.905Z,3.30
2018-08-28T02:04:47.424Z,3.53
2018-08-28T02:07:19.656Z,3.70
2018-08-28T02:09:50.527Z,3.60
2018-08-28T02:12:18.638Z,2.97
2018-08-28T02:14:53.123Z,3.17
2018-08-28T02:17:23.919Z,3.30
2018-08-28T02:19:52.037Z,3.60
2018-08-28T02:22:26.505Z,3.40
2018-08-28T02:25:06.459Z,2.97
2018-08-28T02:27:34.856Z,3.27
2018-08-28T02:30:03.007Z,3.40
2018-08-28T02:32:35.963Z,3.40
2018-08-28T02:35:06.071Z,3.30
2018-08-28T02:37:36.942Z,3.17
2018-08-28T02:40:09.464Z,3.63
2018-08-28T02:42:40.579Z,3.13
2018-08-28T02:45:08.678Z,3.27
2018-08-28T02:47:44.014Z,3.13
2018-08-28T02:50:19.330Z,3.30
2018-08-28T02:53:02.805Z,3.13
2018-08-28T02:55:33.834Z,3.30
2018-08-28T02:58:01.949Z,3.17
2018-08-28T03:00:32.806Z,2.87
2018-08-28T03:03:00.954Z,2.63
2018-08-28T03:05:33.210Z,2.50
2018-08-28T03:08:04.516Z,3.10
2018-08-28T03:10:35.233Z,2.93
2018-08-28T03:13:11.483Z,3.33
2018-08-28T03:18:22.488Z,2.60
2018-08-28T03:21:02.338Z,3.10
2018-08-28T03:23:30.539Z,2.43
2018-08-28T03:26:02.770Z,2.40
2018-08-28T03:28:34.024Z,3.07
2018-08-28T03:31:02.150Z,2.90
2018-08-28T03:33:34.426Z,3.40
2018-08-28T03:36:08.198Z,4.13
2018-08-28T03:38:36.239Z,3.50
2018-08-28T03:41:08.688Z,3.60
2018-08-28T03:43:43.049Z,3.17
2018-08-28T03:46:15.381Z,3.30
2018-08-28T03:48:46.447Z,3.10
2018-08-28T03:51:14.561Z,3.07
2018-08-28T03:53:46.774Z,3.33
2018-08-28T03:56:17.012Z,3.20
2018-08-28T03:58:45.180Z,3.10
2018-08-28T04:01:19.639Z,3.17
2018-08-28T04:03:52.610Z,3.77
2018-08-28T04:06:20.988Z,3.27
2018-08-28T04:08:49.093Z,3.20
2018-08-28T04:11:23.463Z,3.30
2018-08-28T04:13:58.873Z,3.27
2018-08-28T04:16:31.342Z,3.33
2018-08-28T04:19:05.842Z,3.60
2018-08-28T04:21:36.910Z,3.30
2018-08-28T04:24:07.001Z,3.13
2018-08-28T04:26:37.894Z,3.37
2018-08-28T04:29:06.041Z,3.07
2018-08-28T04:31:34.172Z,2.87
2018-08-28T04:34:07.182Z,3.30
2018-08-28T04:36:35.941Z,3.43
2018-08-28T04:39:17.895Z,3.80
2018-08-28T04:41:46.061Z,3.53
2018-08-28T04:44:27.848Z,3.13
2018-08-28T04:46:55.955Z,3.67
2018-08-28T04:49:30.127Z,3.00
2018-08-28T04:52:02.273Z,3.90
2018-08-28T04:54:30.293Z,3.17
2018-08-28T04:57:03.464Z,3.43
2018-08-28T04:59:34.498Z,3.57
2018-08-28T05:02:06.904Z,3.57
2018-08-28T05:04:41.025Z,3.30
2018-08-28T05:07:17.104Z,3.60
2018-08-28T05:09:45.151Z,3.83
2018-08-28T05:12:16.563Z,3.50
2018-08-28T05:14:51.938Z,3.00
2018-08-28T05:17:23.143Z,4.03
2018-08-28T05:19:53.988Z,3.47
2018-08-28T05:22:33.253Z,3.87
2018-08-28T05:25:04.166Z,3.57
2018-08-28T05:27:32.697Z,3.63
2018-08-28T05:30:00.733Z,3.70
2018-08-28T05:32:32.915Z,3.63
2018-08-28T05:35:01.340Z,3.60
2018-08-28T05:37:29.672Z,3.43
2018-08-28T05:39:57.755Z,4.20
2018-08-28T05:42:28.776Z,3.90
2018-08-28T05:44:56.884Z,3.53
2018-08-28T05:47:27.993Z,5.07
2018-08-28T05:50:06.200Z,4.10
2018-08-28T05:52:34.374Z,4.77
2018-08-28T05:55:07.631Z,4.27
2018-08-28T05:57:38.619Z,4.37
2018-08-28T06:00:06.710Z,5.33
2018-08-28T06:02:41.229Z,4.70
2018-08-28T06:05:09.660Z,4.40
2018-08-28T06:07:49.368Z,4.83
2018-08-28T06:10:17.600Z,4.50
2018-08-28T06:12:49.882Z,4.03
2018-08-28T06:15:20.806Z,4.43
2018-08-28T06:17:48.884Z,3.80
2018-08-28T06:20:23.295Z,4.17
2018-08-28T06:22:57.597Z,3.90
2018-08-28T06:25:40.445Z,4.20
2018-08-28T06:28:08.530Z,4.10
2018-08-28T06:30:46.516Z,3.50
2018-08-28T06:33:14.651Z,3.63
2018-08-28T06:35:51.170Z,4.17
2018-08-28T06:38:28.845Z,3.70
2018-08-28T06:40:56.942Z,4.00
2018-08-28T06:43:33.735Z,3.80
2018-08-28T06:46:01.894Z,3.83
2018-08-28T06:48:36.515Z,3.73
2018-08-28T06:51:04.962Z,3.40
2018-08-28T06:53:37.653Z,3.67
2018-08-28T06:56:05.854Z,3.43
2018-08-28T06:58:39.146Z,3.17
2018-08-28T07:01:13.754Z,2.93
2018-08-28T07:03:48.483Z,3.30
2018-08-28T07:06:16.617Z,3.07
2018-08-28T07:11:24.259Z,3.27
2018-08-28T07:14:03.142Z,3.30
2018-08-28T07:16:31.275Z,3.60
2018-08-28T07:19:06.488Z,3.27
2018-08-28T07:21:37.637Z,2.93
2018-08-28T07:24:06.006Z,3.43
2018-08-28T07:26:34.155Z,3.67
2018-08-28T07:29:05.024Z,2.93
2018-08-28T07:31:33.141Z,3.00
2018-08-28T07:34:10.775Z,2.50
2018-08-28T07:36:43.044Z,3.60
2018-08-28T07:39:13.985Z,2.87
2018-08-28T07:41:42.514Z,3.60
2018-08-28T07:44:10.547Z,3.67
2018-08-28T07:46:41.873Z,3.30
2018-08-28T07:49:12.886Z,3.40
2018-08-28T07:51:41.035Z,3.70
2018-08-28T07:54:15.662Z,3.50
2018-08-28T07:56:55.199Z,3.20
2018-08-28T07:59:23.264Z,3.17
2018-08-28T08:01:54.060Z,3.63
2018-08-28T08:04:22.173Z,3.80
2018-08-28T08:06:53.072Z,3.23
2018-08-28T08:09:21.160Z,3.10
2018-08-28T08:11:52.202Z,3.20
2018-08-28T08:14:20.303Z,3.43
2018-08-28T08:16:51.106Z,2.83
2018-08-28T08:19:19.230Z,2.90
2018-08-28T08:21:53.671Z,3.10
2018-08-28T08:24:26.944Z,3.03
2018-08-28T08:26:59.055Z,3.13
2018-08-28T08:29:27.168Z,3.40
2018-08-28T08:32:07.095Z,3.53
2018-08-28T08:34:35.364Z,3.43
2018-08-28T08:37:03.540Z,3.50
2018-08-28T08:39:39.530Z,2.50
2018-08-28T08:42:07.839Z,3.20
2018-08-28T08:44:36.038Z,3.60
2018-08-28T08:47:10.486Z,2.63
2018-08-28T08:49:41.503Z,3.30
2018-08-28T08:52:11.972Z,2.93
2018-08-28T08:54:50.280Z,2.77
2018-08-28T08:57:20.497Z,3.27
2018-08-28T08:59:48.641Z,3.70
2018-08-28T09:02:20.999Z,3.57
2018-08-28T09:04:54.014Z,3.00
2018-08-28T09:07:22.059Z,3.50
2018-08-28T09:09:52.896Z,3.70
2018-08-28T09:12:20.956Z,3.67
2018-08-28T09:14:54.941Z,3.73
2018-08-28T09:17:22.889Z,2.93
2018-08-28T09:20:03.447Z,3.20
2018-08-28T09:22:37.624Z,3.20
2018-08-28T09:25:06.003Z,3.10
2018-08-28T09:27:36.200Z,3.10
2018-08-28T09:30:06.842Z,3.20
2018-08-28T09:32:34.950Z,3.20
2018-08-28T09:35:03.094Z,3.77
2018-08-28T09:37:34.755Z,3.40
2018-08-28T09:40:06.747Z,2.83
2018-08-28T09:42:34.823Z,3.63
2018-08-28T09:45:08.532Z,3.23
2018-08-28T09:47:36.686Z,3.20
2018-08-28T09:50:08.452Z,3.60
2018-08-28T09:52:40.803Z,3.20
2018-08-28T09:55:12.018Z,2.57
2018-08-28T09:57:44.269Z,2.83
2018-08-28T10:00:29.568Z,2.40
2018-08-28T10:03:00.474Z,2.17
2018-08-28T10:05:34.867Z,3.00
2018-08-28T10:08:07.787Z,2.67
2018-08-28T10:10:35.918Z,2.60
2018-08-28T10:13:13.384Z,3.70
2018-08-28T10:15:46.668Z,2.60
2018-08-28T10:18:22.851Z,3.00
2018-08-28T10:21:02.922Z,2.67
2018-08-28T10:23:30.974Z,3.03
2018-08-28T10:26:08.840Z,2.80
2018-08-28T10:28:36.935Z,2.97
2018-08-28T10:31:08.307Z,2.60
2018-08-28T10:33:39.227Z,2.90
2018-08-28T10:36:07.299Z,2.70
2018-08-28T10:38:43.323Z,3.10
2018-08-28T10:41:11.979Z,2.80
2018-08-28T10:43:42.975Z,2.80
2018-08-28T10:46:13.902Z,2.87
2018-08-28T10:48:44.066Z,3.30
2018-08-28T10:51:12.170Z,2.90
2018-08-28T10:53:44.474Z,2.83
2018-08-28T10:56:16.590Z,2.77
2018-08-28T10:58:44.773Z,3.47
2018-08-28T11:01:27.497Z,2.90
2018-08-28T11:03:55.733Z,3.00
2018-08-28T11:06:30.140Z,2.97
2018-08-28T11:09:05.483Z,2.47
2018-08-28T11:11:39.746Z,3.10
2018-08-28T11:14:14.115Z,2.70
2018-08-28T11:16:46.320Z,2.83
2018-08-28T11:19:16.519Z,2.40
2018-08-28T11:21:44.554Z,2.83
2018-08-28T11:24:19.086Z,3.23
2018-08-28T11:26:49.487Z,3.13
2018-08-28T11:29:20.675Z,2.90
2018-08-28T11:31:48.936Z,2.80
2018-08-28T11:34:17.208Z,3.77
2018-08-28T11:36:48.144Z,2.93
2018-08-28T11:39:16.424Z,2.80
2018-08-28T11:41:44.521Z,3.10
2018-08-28T11:44:21.098Z,3.43
2018-08-28T11:46:55.430Z,3.10
2018-08-28T11:49:26.488Z,3.33
2018-08-28T11:51:56.850Z,3.27
2018-08-28T11:54:24.974Z,3.10
2018-08-28T11:57:01.518Z,2.77
2018-08-28T11:59:33.730Z,3.37
2018-08-28T12:02:05.144Z,2.90
2018-08-28T12:04:35.382Z,2.80
2018-08-28T12:07:07.788Z,2.83
2018-08-28T12:09:38.050Z,2.70
2018-08-28T12:12:06.102Z,3.30
2018-08-28T12:14:36.268Z,3.30
2018-08-28T12:17:06.255Z,2.50
2018-08-28T12:19:40.397Z,2.60
2018-08-28T12:22:12.603Z,2.77
2018-08-28T12:24:40.886Z,3.00
2018-08-28T12:27:08.958Z,3.37
2018-08-28T12:29:39.839Z,3.60
2018-08-28T12:32:07.970Z,3.17
2018-08-28T12:34:39.116Z,2.53
2018-08-28T12:37:10.316Z,3.23
2018-08-28T12:39:38.535Z,2.77
2018-08-28T12:42:09.590Z,2.77
2018-08-28T12:44:39.878Z,2.83
2018-08-28T12:47:07.955Z,2.70
2018-08-28T12:49:47.792Z,3.37
2018-08-28T12:52:15.934Z,2.80
2018-08-28T12:54:48.972Z,2.87
2018-08-28T12:57:19.128Z,3.37
2018-08-28T12:59:47.272Z,3.10
2018-08-28T13:02:21.836Z,3.23
2018-08-28T13:04:57.107Z,2.93
2018-08-28T13:07:30.634Z,2.83
2018-08-28T13:10:06.053Z,2.70
2018-08-28T13:12:36.839Z,3.50
2018-08-28T13:15:05.446Z,3.67
2018-08-28T13:17:33.482Z,3.07
2018-08-28T13:20:07.888Z,3.27
2018-08-28T13:22:36.057Z,3.00
2018-08-28T13:25:07.827Z,3.73
2018-08-28T13:30:18.708Z,2.67
2018-08-28T13:32:53.032Z,3.30
2018-08-28T13:35:23.762Z,3.20
2018-08-28T13:37:54.758Z,3.00
2018-08-28T13:40:25.106Z,3.20
2018-08-28T13:42:53.083Z,3.20
2018-08-28T13:45:28.544Z,3.40
2018-08-28T13:47:59.365Z,3.47
2018-08-28T13:50:27.463Z,3.70
2018-08-28T13:52:58.275Z,2.93
2018-08-28T13:55:31.459Z,3.87
2018-08-28T13:58:09.062Z,3.37
2018-08-28T14:00:42.383Z,2.83
2018-08-28T14:03:22.923Z,3.43
2018-08-28T14:05:55.175Z,3.63
2018-08-28T14:08:28.497Z,3.60
2018-08-28T14:10:59.862Z,3.17
2018-08-28T14:13:38.122Z,3.90
2018-08-28T14:16:08.360Z,3.57
2018-08-28T14:18:39.066Z,3.47
2018-08-28T14:21:10.116Z,2.80
2018-08-28T14:23:43.031Z,3.17
2018-08-28T14:26:11.452Z,3.27
2018-08-28T14:28:39.465Z,3.40
2018-08-28T14:31:14.108Z,3.77
2018-08-28T14:33:42.182Z,3.80
2018-08-28T14:36:16.745Z,3.70
2018-08-28T14:38:48.904Z,3.60
2018-08-28T14:41:31.362Z,3.43
2018-08-28T14:44:09.882Z,3.67
2018-08-28T14:46:38.950Z,3.80
2018-08-28T14:49:07.596Z,3.53
2018-08-28T14:51:37.800Z,3.27
2018-08-28T14:54:05.851Z,3.60
2018-08-28T14:56:45.701Z,4.30
2018-08-28T14:59:13.682Z,3.87
2018-08-28T15:01:44.684Z,3.83
2018-08-28T15:04:13.771Z,4.30
2018-08-28T15:06:44.844Z,4.17
2018-08-28T15:09:12.944Z,4.10
2018-08-28T15:11:47.451Z,3.67
2018-08-28T15:14:18.375Z,3.37
2018-08-28T15:16:49.572Z,3.17
2018-08-28T15:19:17.707Z,3.57
2018-08-28T15:21:50.023Z,3.50
2018-08-28T15:24:21.682Z,3.70
2018-08-28T15:26:50.373Z,3.80
2018-08-28T15:31:55.991Z,4.00
2018-08-28T15:34:26.803Z,3.93
2018-08-28T15:36:54.980Z,3.50
2018-08-28T15:39:25.814Z,3.80
2018-08-28T15:41:53.986Z,3.57
2018-08-28T15:44:25.025Z,3.73
2018-08-28T15:46:53.529Z,3.90
2018-08-28T15:49:21.562Z,3.57
2018-08-28T15:52:01.392Z,4.07
2018-08-28T15:54:29.585Z,4.00
2018-08-28T15:57:01.963Z,4.20
2018-08-28T15:59:38.548Z,3.90
2018-08-28T16:02:06.694Z,4.50
2018-08-28T16:04:41.113Z,4.17
2018-08-28T16:07:12.175Z,3.70
2018-08-28T16:09:40.265Z,3.97
2018-08-28T16:12:15.206Z,4.50
2018-08-28T16:14:43.438Z,4.33
2018-08-28T16:17:11.629Z,4.57
2018-08-28T16:19:42.517Z,4.37
2018-08-28T16:22:11.004Z,4.23
2018-08-28T16:24:39.146Z,3.97
2018-08-28T16:27:09.956Z,4.57
2018-08-28T16:29:38.113Z,4.27
2018-08-28T16:34:56.057Z,4.30
2018-08-28T16:37:28.316Z,4.43
2018-08-28T16:40:04.957Z,4.30
2018-08-28T16:42:37.276Z,4.77
2018-08-28T16:45:05.504Z,3.80
2018-08-28T16:47:43.883Z,3.87
2018-08-28T16:50:12.421Z,4.37
2018-08-28T16:52:51.006Z,4.23
2018-08-28T16:55:33.670Z,3.97
2018-08-28T16:58:01.854Z,4.70
2018-08-28T17:00:41.992Z,4.20
2018-08-28T17:03:21.997Z,4.43
2018-08-28T17:05:50.115Z,4.30
2018-08-28T17:08:21.341Z,3.73
2018-08-28T17:10:52.384Z,4.10
2018-08-28T17:13:20.535Z,4.10
2018-08-28T17:15:49.671Z,4.87
2018-08-28T17:18:20.750Z,4.83
2018-08-28T17:20:53.026Z,4.23
2018-08-28T17:23:27.479Z,4.07
2018-08-28T17:26:01.929Z,4.27
2018-08-28T17:28:32.351Z,4.53
2018-08-28T17:31:07.668Z,4.20
2018-08-28T17:33:40.006Z,3.90
2018-08-28T17:36:10.131Z,4.40
2018-08-28T17:38:38.250Z,3.70
2018-08-28T17:41:12.548Z,4.27
2018-08-28T17:43:44.598Z,3.87
2018-08-28T17:46:12.861Z,3.90
2018-08-28T17:48:46.095Z,5.23
2018-08-28T17:51:14.207Z,4.37
2018-08-28T17:53:42.497Z,4.00
2018-08-28T17:56:10.561Z,3.97
2018-08-28T17:58:43.915Z,4.10
2018-08-28T18:01:15.249Z,4.10
2018-08-28T18:03:57.359Z,4.00
2018-08-28T18:06:25.496Z,5.17
2018-08-28T18:08:56.498Z,4.63
2018-08-28T18:11:24.823Z,4.17
2018-08-28T18:13:53.034Z,4.10
2018-08-28T18:16:24.058Z,4.53
2018-08-28T18:19:06.112Z,4.43
2018-08-28T18:21:34.216Z,4.43
2018-08-28T18:24:08.707Z,3.87
2018-08-28T18:26:44.109Z,4.00
2018-08-28T18:29:15.254Z,4.70
2018-08-28T18:31:46.326Z,3.83
2018-08-28T18:34:26.166Z,4.10
2018-08-28T18:36:56.324Z,4.27
2018-08-28T18:39:24.337Z,4.10
2018-08-28T18:41:58.718Z,3.90
2018-08-28T18:44:39.566Z,4.20
2018-08-28T18:47:07.752Z,4.20
2018-08-28T18:49:47.383Z,4.33
2018-08-28T18:52:18.099Z,3.90
2018-08-28T18:54:46.194Z,3.63
2018-08-28T18:57:21.442Z,4.53
2018-08-28T18:59:52.646Z,4.13
2018-08-28T19:02:21.123Z,3.63
2018-08-28T19:04:49.522Z,4.37
2018-08-28T19:07:17.924Z,4.27
2018-08-28T19:09:46.817Z,4.37
2018-08-28T19:12:20.480Z,4.87
2018-08-28T19:14:55.448Z,4.53
2018-08-28T19:17:23.564Z,3.97
2018-08-28T19:19:58.675Z,4.63
2018-08-28T19:22:30.230Z,4.33
2018-08-28T19:25:01.624Z,4.60
2018-08-28T19:27:32.725Z,4.43
2018-08-28T19:30:03.807Z,4.53
2018-08-28T19:32:32.363Z,4.00
2018-08-28T19:35:07.966Z,4.13
2018-08-28T19:37:36.214Z,4.27
2018-08-28T19:40:09.246Z,5.00
2018-08-28T19:42:39.791Z,4.27
2018-08-28T19:45:28.061Z,4.77
2018-08-28T19:47:59.831Z,4.67
2018-08-28T19:50:30.764Z,4.37
2018-08-28T19:52:59.015Z,4.17
2018-08-28T19:55:36.161Z,4.40
2018-08-28T19:58:12.262Z,4.20
2018-08-28T20:00:40.688Z,4.77
2018-08-28T20:03:09.047Z,4.60
2018-08-28T20:05:37.190Z,4.17
2018-08-28T20:08:08.061Z,4.20
2018-08-28T20:10:36.135Z,5.10
2018-08-28T20:13:06.980Z,4.43
2018-08-28T20:15:35.041Z,3.90
2018-08-28T20:18:07.310Z,4.13
2018-08-28T20:20:37.430Z,4.87
2018-08-28T20:23:05.609Z,4.43
2018-08-28T20:25:40.261Z,4.80
2018-08-28T20:28:11.059Z,4.73
2018-08-28T20:30:39.437Z,4.63
2018-08-28T20:33:07.517Z,4.67
2018-08-28T20:35:38.333Z,4.23
2018-08-28T20:38:06.617Z,4.13
2018-08-28T20:40:43.395Z,5.03
2018-08-28T20:43:11.803Z,4.23
2018-08-28T20:45:39.916Z,4.53
2018-08-28T20:48:10.895Z,4.50
2018-08-28T20:50:38.928Z,5.33
2018-08-28T20:53:10.065Z,4.37
2018-08-28T20:55:42.423Z,4.83
2018-08-28T20:58:12.609Z,4.50
2018-08-28T21:00:40.663Z,5.10
2018-08-28T21:03:20.542Z,4.90
2018-08-28T21:05:48.587Z,4.47
2018-08-28T21:08:22.440Z,4.80
2018-08-28T21:10:50.663Z,4.53
2018-08-28T21:13:21.939Z,4.83
2018-08-28T21:16:03.647Z,4.63
2018-08-28T21:18:34.540Z,4.67
2018-08-28T21:21:02.744Z,4.13
2018-08-28T21:23:30.849Z,4.43
2018-08-28T21:26:01.746Z,4.83
2018-08-28T21:28:30.150Z,4.40
2018-08-28T21:31:01.316Z,4.20
2018-08-28T21:33:34.163Z,4.40
2018-08-28T21:36:02.186Z,4.43
2018-08-28T21:38:34.506Z,4.93
2018-08-28T21:41:05.340Z,4.70
2018-08-28T21:43:36.380Z,4.53
2018-08-28T21:46:04.719Z,4.53
2018-08-28T21:48:32.802Z,4.90
2018-08-28T21:51:05.907Z,4.53
2018-08-28T21:53:34.095Z,4.73
2018-08-28T21:56:02.222Z,5.27
2018-08-28T21:58:35.265Z,4.43
2018-08-28T22:01:09.057Z,5.00
2018-08-28T22:03:48.790Z,5.00
2018-08-28T22:06:27.227Z,4.57
2018-08-28T22:08:55.348Z,5.13
2018-08-28T22:11:26.268Z,4.10
2018-08-28T22:13:54.381Z,5.00
2018-08-28T22:16:25.218Z,4.43
2018-08-28T22:18:53.299Z,5.30
2018-08-28T22:21:33.155Z,5.17
2018-08-28T22:24:01.350Z,5.30
2018-08-28T22:26:43.804Z,4.80
2018-08-28T22:29:17.065Z,4.80
2018-08-28T22:31:47.197Z,5.10
2018-08-28T22:34:15.603Z,5.07
2018-08-28T22:36:43.670Z,4.43
2018-08-28T22:39:18.811Z,5.10
2018-08-28T22:41:53.415Z,4.40
2018-08-28T22:44:25.906Z,4.50
2018-08-28T22:46:56.733Z,4.40
2018-08-28T22:49:24.793Z,4.73
2018-08-28T22:52:04.751Z,4.90
2018-08-28T22:54:32.823Z,5.27
2018-08-28T22:57:08.592Z,4.80
2018-08-28T22:59:36.636Z,5.37
2018-08-28T23:02:08.919Z,5.63
2018-08-28T23:04:39.138Z,4.70
2018-08-28T23:07:07.204Z,4.20
2018-08-28T23:09:47.038Z,4.77
2018-08-28T23:12:15.136Z,4.20
2018-08-28T23:14:49.576Z,4.83
2018-08-28T23:17:20.601Z,4.17
2018-08-28T23:19:48.900Z,5.03
2018-08-28T23:22:17.044Z,5.20
2018-08-28T23:24:56.955Z,5.23
2018-08-28T23:27:25.252Z,4.93
2018-08-28T23:29:53.312Z,5.10
2018-08-28T23:32:24.368Z,4.67
2018-08-28T23:34:52.648Z,5.70
2018-08-28T23:37:20.741Z,5.33
2018-08-28T23:40:02.742Z,4.97
2018-08-28T23:42:30.858Z,5.03
2018-08-28T23:45:05.434Z,4.83
2018-08-28T23:47:37.744Z,5.17
2018-08-28T23:50:10.891Z,5.00
2018-08-28T23:52:41.111Z,4.90
2018-08-28T23:55:09.166Z,4.50
2018-08-28T23:57:42.114Z,4.80
